sensor_id;sensor_type;location;lat;lon;timestamp;temperature;humidity
5779;DHT22;2916;49.798;10.022;2023-02-28T00:01:29;-1.50;99.90
5779;DHT22;2916;49.798;10.022;2023-02-28T00:03:56;-1.60;99.90
5779;DHT22;2916;49.798;10.022;2023-02-28T00:06:23;-1.50;99.90
5779;DHT22;2916;49.798;10.022;2023-02-28T00:08:50;-1.50;99.90
5779;DHT22;2916;49.798;10.022;2023-02-28T00:11:20;-1.60;99.90
5779;DHT22;2916;49.798;10.022;2023-02-28T00:13:48;-1.60;99.90
5779;DHT22;2916;49.798;10.022;2023-02-28T00:16:16;-1.60;99.90
5779;DHT22;2916;49.798;10.022;2023-02-28T00:18:44;-1.60;99.90
5779;DHT22;2916;49.798;10.022;2023-02-28T00:21:13;-1.60;99.90
5779;DHT22;2916;49.798;10.022;2023-02-28T00:23:40;-1.60;99.90
5779;DHT22;2916;49.798;10.022;2023-02-28T00:26:06;-1.60;99.90
5779;DHT22;2916;49.798;10.022;2023-02-28T00:28:35;-1.60;99.90
5779;DHT22;2916;49.798;10.022;2023-02-28T00:31:02;-1.70;99.90
5779;DHT22;2916;49.798;10.022;2023-02-28T00:33:29;-1.70;99.90
5779;DHT22;2916;49.798;10.022;2023-02-28T00:36:04;-1.70;99.90
5779;DHT22;2916;49.798;10.022;2023-02-28T00:38:31;-1.70;99.90
5779;DHT22;2916;49.798;10.022;2023-02-28T00:40:58;-1.70;99.90
5779;DHT22;2916;49.798;10.022;2023-02-28T00:43:30;-1.70;99.90
5779;DHT22;2916;49.798;10.022;2023-02-28T00:45:59;-1.80;99.90
5779;DHT22;2916;49.798;10.022;2023-02-28T00:48:26;-1.80;99.90
5779;DHT22;2916;49.798;10.022;2023-02-28T00:50:53;-1.80;99.90
5779;DHT22;2916;49.798;10.022;2023-02-28T00:53:20;-1.80;99.90
5779;DHT22;2916;49.798;10.022;2023-02-28T00:55:48;-1.80;99.90
5779;DHT22;2916;49.798;10.022;2023-02-28T00:58:15;-1.80;99.90
5779;DHT22;2916;49.798;10.022;2023-02-28T01:00:41;-1.80;99.90
5779;DHT22;2916;49.798;10.022;2023-02-28T01:03:10;-1.80;99.90
5779;DHT22;2916;49.798;10.022;2023-02-28T01:05:37;-1.80;99.90
5779;DHT22;2916;49.798;10.022;2023-02-28T01:08:04;-1.90;99.90
5779;DHT22;2916;49.798;10.022;2023-02-28T01:10:31;-1.90;99.90
5779;DHT22;2916;49.798;10.022;2023-02-28T01:12:58;-1.90;99.90
5779;DHT22;2916;49.798;10.022;2023-02-28T01:15:25;-1.90;99.90
5779;DHT22;2916;49.798;10.022;2023-02-28T01:17:53;-1.90;99.90
5779;DHT22;2916;49.798;10.022;2023-02-28T01:20:21;-1.90;99.90
5779;DHT22;2916;49.798;10.022;2023-02-28T01:22:48;-1.90;99.90
5779;DHT22;2916;49.798;10.022;2023-02-28T01:25:15;-1.90;99.90
5779;DHT22;2916;49.798;10.022;2023-02-28T01:27:42;-1.90;99.90
5779;DHT22;2916;49.798;10.022;2023-02-28T01:30:10;-1.90;99.90
5779;DHT22;2916;49.798;10.022;2023-02-28T01:32:37;-1.90;99.90
5779;DHT22;2916;49.798;10.022;2023-02-28T01:35:05;-1.90;99.90
5779;DHT22;2916;49.798;10.022;2023-02-28T01:37:33;-1.90;99.90
5779;DHT22;2916;49.798;10.022;2023-02-28T01:40:00;-1.90;99.90
5779;DHT22;2916;49.798;10.022;2023-02-28T01:42:27;-1.90;99.90
5779;DHT22;2916;49.798;10.022;2023-02-28T01:45:00;-1.90;99.90
5779;DHT22;2916;49.798;10.022;2023-02-28T01:47:31;-1.90;99.90
5779;DHT22;2916;49.798;10.022;2023-02-28T01:50:02;-1.90;99.90
5779;DHT22;2916;49.798;10.022;2023-02-28T01:52:30;-1.80;99.90
5779;DHT22;2916;49.798;10.022;2023-02-28T01:55:00;-1.90;99.90
5779;DHT22;2916;49.798;10.022;2023-02-28T01:57:32;-1.90;99.90
5779;DHT22;2916;49.798;10.022;2023-02-28T02:00:05;-1.90;99.90
5779;DHT22;2916;49.798;10.022;2023-02-28T02:02:35;-2.00;99.90
5779;DHT22;2916;49.798;10.022;2023-02-28T02:05:04;-1.90;99.90
5779;DHT22;2916;49.798;10.022;2023-02-28T02:07:34;-2.00;99.90
5779;DHT22;2916;49.798;10.022;2023-02-28T02:10:09;-2.00;99.90
5779;DHT22;2916;49.798;10.022;2023-02-28T02:12:56;-2.00;99.90
5779;DHT22;2916;49.798;10.022;2023-02-28T02:15:32;-2.00;99.90
5779;DHT22;2916;49.798;10.022;2023-02-28T02:18:04;-2.10;99.90
5779;DHT22;2916;49.798;10.022;2023-02-28T02:24:02;-2.10;99.90
5779;DHT22;2916;49.798;10.022;2023-02-28T02:27:03;-2.10;99.90
5779;DHT22;2916;49.798;10.022;2023-02-28T02:32:44;-2.20;99.90
5779;DHT22;2916;49.798;10.022;2023-02-28T02:35:19;-2.20;99.90
5779;DHT22;2916;49.798;10.022;2023-02-28T02:37:52;-2.30;99.90
5779;DHT22;2916;49.798;10.022;2023-02-28T02:40:27;-2.30;99.90
5779;DHT22;2916;49.798;10.022;2023-02-28T02:42:59;-2.30;99.90
5779;DHT22;2916;49.798;10.022;2023-02-28T02:45:32;-2.30;99.90
5779;DHT22;2916;49.798;10.022;2023-02-28T02:48:03;-2.30;99.90
5779;DHT22;2916;49.798;10.022;2023-02-28T02:50:36;-2.30;99.90
5779;DHT22;2916;49.798;10.022;2023-02-28T02:53:06;-2.30;99.90
5779;DHT22;2916;49.798;10.022;2023-02-28T02:55:36;-2.30;99.90
5779;DHT22;2916;49.798;10.022;2023-02-28T02:58:09;-2.30;99.90
5779;DHT22;2916;49.798;10.022;2023-02-28T03:00:41;-2.30;99.90
5779;DHT22;2916;49.798;10.022;2023-02-28T03:03:10;-2.30;99.90
5779;DHT22;2916;49.798;10.022;2023-02-28T03:05:44;-2.30;99.90
5779;DHT22;2916;49.798;10.022;2023-02-28T03:08:12;-2.30;99.90
5779;DHT22;2916;49.798;10.022;2023-02-28T03:10:41;-2.30;99.90
5779;DHT22;2916;49.798;10.022;2023-02-28T03:13:34;-2.40;99.90
5779;DHT22;2916;49.798;10.022;2023-02-28T03:19:37;-2.40;99.90
5779;DHT22;2916;49.798;10.022;2023-02-28T03:22:17;-2.30;99.90
5779;DHT22;2916;49.798;10.022;2023-02-28T03:24:50;-2.40;99.90
5779;DHT22;2916;49.798;10.022;2023-02-28T03:27:24;-2.40;99.90
5779;DHT22;2916;49.798;10.022;2023-02-28T03:29:59;-2.40;99.90
5779;DHT22;2916;49.798;10.022;2023-02-28T03:32:29;-2.40;99.90
5779;DHT22;2916;49.798;10.022;2023-02-28T03:35:02;-2.40;99.90
5779;DHT22;2916;49.798;10.022;2023-02-28T03:37:34;-2.40;99.90
5779;DHT22;2916;49.798;10.022;2023-02-28T03:40:05;-2.40;99.90
5779;DHT22;2916;49.798;10.022;2023-02-28T03:42:36;-2.40;99.90
5779;DHT22;2916;49.798;10.022;2023-02-28T03:45:08;-2.40;99.90
5779;DHT22;2916;49.798;10.022;2023-02-28T03:47:38;-2.40;99.90
5779;DHT22;2916;49.798;10.022;2023-02-28T03:50:11;-2.40;99.90
5779;DHT22;2916;49.798;10.022;2023-02-28T03:52:44;-2.40;99.90
5779;DHT22;2916;49.798;10.022;2023-02-28T03:55:13;-2.40;99.90
5779;DHT22;2916;49.798;10.022;2023-02-28T03:57:51;-2.40;99.90
5779;DHT22;2916;49.798;10.022;2023-02-28T04:00:24;-2.40;99.90
5779;DHT22;2916;49.798;10.022;2023-02-28T04:02:54;-2.40;99.90
5779;DHT22;2916;49.798;10.022;2023-02-28T04:05:21;-2.40;99.90
5779;DHT22;2916;49.798;10.022;2023-02-28T04:07:50;-2.40;99.90
5779;DHT22;2916;49.798;10.022;2023-02-28T04:10:17;-2.50;99.90
5779;DHT22;2916;49.798;10.022;2023-02-28T04:12:44;-2.50;99.90
5779;DHT22;2916;49.798;10.022;2023-02-28T04:15:11;-2.50;99.90
5779;DHT22;2916;49.798;10.022;2023-02-28T04:17:38;-2.40;99.90
5779;DHT22;2916;49.798;10.022;2023-02-28T04:20:05;-2.50;99.90
5779;DHT22;2916;49.798;10.022;2023-02-28T04:22:35;-2.50;99.90
5779;DHT22;2916;49.798;10.022;2023-02-28T04:25:06;-2.50;99.90
5779;DHT22;2916;49.798;10.022;2023-02-28T04:27:33;-2.50;99.90
5779;DHT22;2916;49.798;10.022;2023-02-28T04:30:00;-2.50;99.90
5779;DHT22;2916;49.798;10.022;2023-02-28T04:32:27;-2.50;99.90
5779;DHT22;2916;49.798;10.022;2023-02-28T04:34:54;-2.50;99.90
5779;DHT22;2916;49.798;10.022;2023-02-28T04:37:21;-2.30;99.90
5779;DHT22;2916;49.798;10.022;2023-02-28T04:39:53;-2.40;99.90
5779;DHT22;2916;49.798;10.022;2023-02-28T04:42:21;-2.40;99.90
5779;DHT22;2916;49.798;10.022;2023-02-28T04:44:48;-2.40;99.90
5779;DHT22;2916;49.798;10.022;2023-02-28T04:47:15;-2.40;99.90
5779;DHT22;2916;49.798;10.022;2023-02-28T04:49:42;-2.40;99.90
5779;DHT22;2916;49.798;10.022;2023-02-28T04:52:09;-2.40;99.90
5779;DHT22;2916;49.798;10.022;2023-02-28T04:54:36;-2.40;99.90
5779;DHT22;2916;49.798;10.022;2023-02-28T04:57:04;-2.40;99.90
5779;DHT22;2916;49.798;10.022;2023-02-28T04:59:33;-2.40;99.90
5779;DHT22;2916;49.798;10.022;2023-02-28T05:02:00;-2.40;99.90
5779;DHT22;2916;49.798;10.022;2023-02-28T05:04:32;-2.50;99.90
5779;DHT22;2916;49.798;10.022;2023-02-28T05:07:00;-2.40;99.90
5779;DHT22;2916;49.798;10.022;2023-02-28T05:09:27;-2.50;99.90
5779;DHT22;2916;49.798;10.022;2023-02-28T05:11:54;-2.50;99.90
5779;DHT22;2916;49.798;10.022;2023-02-28T05:14:21;-2.50;99.90
5779;DHT22;2916;49.798;10.022;2023-02-28T05:16:49;-2.50;99.90
5779;DHT22;2916;49.798;10.022;2023-02-28T05:19:16;-2.50;99.90
5779;DHT22;2916;49.798;10.022;2023-02-28T05:21:50;-2.50;99.90
5779;DHT22;2916;49.798;10.022;2023-02-28T05:24:17;-2.50;99.90
5779;DHT22;2916;49.798;10.022;2023-02-28T05:26:48;-2.50;99.90
5779;DHT22;2916;49.798;10.022;2023-02-28T05:29:15;-2.50;99.90
5779;DHT22;2916;49.798;10.022;2023-02-28T05:31:42;-2.60;99.90
5779;DHT22;2916;49.798;10.022;2023-02-28T05:34:11;-2.60;99.90
5779;DHT22;2916;49.798;10.022;2023-02-28T05:36:38;-2.50;99.90
5779;DHT22;2916;49.798;10.022;2023-02-28T05:39:05;-2.50;99.90
5779;DHT22;2916;49.798;10.022;2023-02-28T05:41:33;-2.50;99.90
5779;DHT22;2916;49.798;10.022;2023-02-28T05:43:59;-2.50;99.90
5779;DHT22;2916;49.798;10.022;2023-02-28T05:46:26;-2.60;99.90
5779;DHT22;2916;49.798;10.022;2023-02-28T05:48:53;-2.60;99.90
5779;DHT22;2916;49.798;10.022;2023-02-28T05:51:22;-2.50;99.90
5779;DHT22;2916;49.798;10.022;2023-02-28T05:53:49;-2.60;99.90
5779;DHT22;2916;49.798;10.022;2023-02-28T05:56:16;-2.50;99.90
5779;DHT22;2916;49.798;10.022;2023-02-28T05:58:43;-2.60;99.90
5779;DHT22;2916;49.798;10.022;2023-02-28T06:01:23;-2.50;99.90
5779;DHT22;2916;49.798;10.022;2023-02-28T06:03:50;-2.50;99.90
5779;DHT22;2916;49.798;10.022;2023-02-28T06:06:17;-2.50;99.90
5779;DHT22;2916;49.798;10.022;2023-02-28T06:08:46;-2.50;99.90
5779;DHT22;2916;49.798;10.022;2023-02-28T06:11:13;-2.50;99.90
5779;DHT22;2916;49.798;10.022;2023-02-28T06:13:40;-2.50;99.90
5779;DHT22;2916;49.798;10.022;2023-02-28T06:16:08;-2.40;99.90
5779;DHT22;2916;49.798;10.022;2023-02-28T06:18:35;-2.50;99.90
5779;DHT22;2916;49.798;10.022;2023-02-28T06:21:02;-2.50;99.90
5779;DHT22;2916;49.798;10.022;2023-02-28T06:23:30;-2.50;99.90
5779;DHT22;2916;49.798;10.022;2023-02-28T06:25:58;-2.50;99.90
5779;DHT22;2916;49.798;10.022;2023-02-28T06:28:26;-2.40;99.90
5779;DHT22;2916;49.798;10.022;2023-02-28T06:30:53;-2.40;99.90
5779;DHT22;2916;49.798;10.022;2023-02-28T06:33:20;-2.30;99.90
5779;DHT22;2916;49.798;10.022;2023-02-28T06:35:47;-2.40;99.90
5779;DHT22;2916;49.798;10.022;2023-02-28T06:38:16;-2.30;99.90
5779;DHT22;2916;49.798;10.022;2023-02-28T06:40:43;-2.30;99.90
5779;DHT22;2916;49.798;10.022;2023-02-28T06:43:12;-2.30;99.90
5779;DHT22;2916;49.798;10.022;2023-02-28T06:45:42;-2.20;99.90
5779;DHT22;2916;49.798;10.022;2023-02-28T06:48:09;-2.20;99.90
5779;DHT22;2916;49.798;10.022;2023-02-28T06:50:36;-2.20;99.90
5779;DHT22;2916;49.798;10.022;2023-02-28T06:53:04;-2.10;99.90
5779;DHT22;2916;49.798;10.022;2023-02-28T06:55:31;-2.10;99.90
5779;DHT22;2916;49.798;10.022;2023-02-28T06:57:58;-2.10;99.90
5779;DHT22;2916;49.798;10.022;2023-02-28T07:00:26;-2.00;99.90
5779;DHT22;2916;49.798;10.022;2023-02-28T07:02:53;-2.00;99.90
5779;DHT22;2916;49.798;10.022;2023-02-28T07:05:21;-2.00;99.90
5779;DHT22;2916;49.798;10.022;2023-02-28T07:07:48;-1.90;99.90
5779;DHT22;2916;49.798;10.022;2023-02-28T07:10:18;-1.90;99.90
5779;DHT22;2916;49.798;10.022;2023-02-28T07:12:45;-1.70;99.90
5779;DHT22;2916;49.798;10.022;2023-02-28T07:15:12;-1.60;99.90
5779;DHT22;2916;49.798;10.022;2023-02-28T07:17:40;-1.40;99.90
5779;DHT22;2916;49.798;10.022;2023-02-28T07:20:08;-1.30;99.90
5779;DHT22;2916;49.798;10.022;2023-02-28T07:22:35;-1.10;99.90
5779;DHT22;2916;49.798;10.022;2023-02-28T07:25:03;-1.10;99.90
5779;DHT22;2916;49.798;10.022;2023-02-28T07:27:29;-0.80;97.10
5779;DHT22;2916;49.798;10.022;2023-02-28T07:29:56;-0.70;96.20
5779;DHT22;2916;49.798;10.022;2023-02-28T07:32:27;-0.70;92.80
5779;DHT22;2916;49.798;10.022;2023-02-28T07:34:55;-0.40;91.00
5779;DHT22;2916;49.798;10.022;2023-02-28T07:37:23;-0.50;90.20
5779;DHT22;2916;49.798;10.022;2023-02-28T07:39:49;-0.30;86.60
5779;DHT22;2916;49.798;10.022;2023-02-28T07:42:17;-0.30;85.70
5779;DHT22;2916;49.798;10.022;2023-02-28T07:44:44;-0.20;79.50
5779;DHT22;2916;49.798;10.022;2023-02-28T07:47:11;-0.30;75.70
5779;DHT22;2916;49.798;10.022;2023-02-28T07:49:38;-0.30;75.90
5779;DHT22;2916;49.798;10.022;2023-02-28T07:52:07;-0.10;77.80
5779;DHT22;2916;49.798;10.022;2023-02-28T07:54:34;-0.20;76.90
5779;DHT22;2916;49.798;10.022;2023-02-28T07:57:01;0.00;75.10
5779;DHT22;2916;49.798;10.022;2023-02-28T07:59:28;0.20;66.60
5779;DHT22;2916;49.798;10.022;2023-02-28T08:01:57;0.50;70.90
5779;DHT22;2916;49.798;10.022;2023-02-28T08:04:24;0.60;66.00
5779;DHT22;2916;49.798;10.022;2023-02-28T08:06:51;0.60;61.00
5779;DHT22;2916;49.798;10.022;2023-02-28T08:09:20;1.00;63.10
5779;DHT22;2916;49.798;10.022;2023-02-28T08:11:47;0.90;51.70
5779;DHT22;2916;49.798;10.022;2023-02-28T08:14:14;0.90;55.30
5779;DHT22;2916;49.798;10.022;2023-02-28T08:16:41;1.00;47.50
5779;DHT22;2916;49.798;10.022;2023-02-28T08:19:08;1.30;52.10
5779;DHT22;2916;49.798;10.022;2023-02-28T08:21:35;1.30;39.00
5779;DHT22;2916;49.798;10.022;2023-02-28T08:24:02;1.40;44.60
5779;DHT22;2916;49.798;10.022;2023-02-28T08:26:31;1.60;40.60
5779;DHT22;2916;49.798;10.022;2023-02-28T08:28:58;1.60;34.20
5779;DHT22;2916;49.798;10.022;2023-02-28T08:31:25;1.60;34.80
5779;DHT22;2916;49.798;10.022;2023-02-28T08:33:52;1.70;34.20
5779;DHT22;2916;49.798;10.022;2023-02-28T08:36:22;1.80;30.50
5779;DHT22;2916;49.798;10.022;2023-02-28T08:38:50;1.70;28.00
5779;DHT22;2916;49.798;10.022;2023-02-28T08:41:17;1.80;29.70
5779;DHT22;2916;49.798;10.022;2023-02-28T08:43:45;1.40;28.30
5779;DHT22;2916;49.798;10.022;2023-02-28T08:46:13;1.30;29.40
5779;DHT22;2916;49.798;10.022;2023-02-28T08:48:40;1.40;24.40
5779;DHT22;2916;49.798;10.022;2023-02-28T08:51:09;1.50;26.90
5779;DHT22;2916;49.798;10.022;2023-02-28T08:53:37;1.70;27.00
5779;DHT22;2916;49.798;10.022;2023-02-28T08:56:07;1.90;23.80
5779;DHT22;2916;49.798;10.022;2023-02-28T08:58:35;1.80;21.40
5779;DHT22;2916;49.798;10.022;2023-02-28T09:01:10;1.90;23.80
5779;DHT22;2916;49.798;10.022;2023-02-28T09:03:37;1.90;17.40
5779;DHT22;2916;49.798;10.022;2023-02-28T09:06:04;1.90;17.90
5779;DHT22;2916;49.798;10.022;2023-02-28T09:08:31;1.80;14.60
5779;DHT22;2916;49.798;10.022;2023-02-28T09:10:58;2.00;18.40
5779;DHT22;2916;49.798;10.022;2023-02-28T09:13:26;2.00;13.50
5779;DHT22;2916;49.798;10.022;2023-02-28T09:15:53;1.90;14.40
5779;DHT22;2916;49.798;10.022;2023-02-28T09:18:21;2.20;12.30
5779;DHT22;2916;49.798;10.022;2023-02-28T09:20:48;2.00;7.40
5779;DHT22;2916;49.798;10.022;2023-02-28T09:23:16;2.00;5.50
5779;DHT22;2916;49.798;10.022;2023-02-28T09:25:47;2.10;4.00
5779;DHT22;2916;49.798;10.022;2023-02-28T09:28:15;1.90;1.00
5779;DHT22;2916;49.798;10.022;2023-02-28T09:30:44;2.10;1.00
5779;DHT22;2916;49.798;10.022;2023-02-28T09:33:11;2.20;1.00
5779;DHT22;2916;49.798;10.022;2023-02-28T09:35:40;2.20;1.00
5779;DHT22;2916;49.798;10.022;2023-02-28T09:38:09;2.20;1.00
5779;DHT22;2916;49.798;10.022;2023-02-28T09:40:37;2.40;1.00
5779;DHT22;2916;49.798;10.022;2023-02-28T09:43:12;2.50;1.00
5779;DHT22;2916;49.798;10.022;2023-02-28T09:45:42;2.70;1.00
5779;DHT22;2916;49.798;10.022;2023-02-28T09:48:14;2.80;1.00
5779;DHT22;2916;49.798;10.022;2023-02-28T09:50:47;2.40;1.00
5779;DHT22;2916;49.798;10.022;2023-02-28T09:53:21;2.60;1.00
5779;DHT22;2916;49.798;10.022;2023-02-28T09:55:51;2.60;1.00
5779;DHT22;2916;49.798;10.022;2023-02-28T09:58:26;2.50;1.00
5779;DHT22;2916;49.798;10.022;2023-02-28T10:01:02;2.60;1.00
5779;DHT22;2916;49.798;10.022;2023-02-28T10:03:32;2.60;1.00
5779;DHT22;2916;49.798;10.022;2023-02-28T10:06:08;2.70;1.00
5779;DHT22;2916;49.798;10.022;2023-02-28T10:08:51;2.90;1.00
5779;DHT22;2916;49.798;10.022;2023-02-28T10:11:19;2.80;1.00
5779;DHT22;2916;49.798;10.022;2023-02-28T10:13:53;2.90;1.00
5779;DHT22;2916;49.798;10.022;2023-02-28T10:16:28;2.90;1.00
5779;DHT22;2916;49.798;10.022;2023-02-28T10:19:02;3.00;1.00
5779;DHT22;2916;49.798;10.022;2023-02-28T10:21:35;2.90;1.00
5779;DHT22;2916;49.798;10.022;2023-02-28T10:24:11;3.10;1.00
5779;DHT22;2916;49.798;10.022;2023-02-28T10:26:43;3.00;1.00
5779;DHT22;2916;49.798;10.022;2023-02-28T10:29:11;3.20;1.00
5779;DHT22;2916;49.798;10.022;2023-02-28T10:31:38;3.20;1.00
5779;DHT22;2916;49.798;10.022;2023-02-28T10:34:06;3.40;1.00
5779;DHT22;2916;49.798;10.022;2023-02-28T10:36:35;3.50;1.00
5779;DHT22;2916;49.798;10.022;2023-02-28T10:39:35;3.30;1.00
5779;DHT22;2916;49.798;10.022;2023-02-28T10:42:02;3.10;1.00
5779;DHT22;2916;49.798;10.022;2023-02-28T10:44:29;3.10;1.00
5779;DHT22;2916;49.798;10.022;2023-02-28T10:46:57;2.90;1.00
5779;DHT22;2916;49.798;10.022;2023-02-28T10:49:26;2.90;1.00
5779;DHT22;2916;49.798;10.022;2023-02-28T10:51:57;3.10;1.00
5779;DHT22;2916;49.798;10.022;2023-02-28T10:54:28;3.30;1.00
5779;DHT22;2916;49.798;10.022;2023-02-28T10:57:07;3.10;1.00
5779;DHT22;2916;49.798;10.022;2023-02-28T10:59:37;3.20;1.00
5779;DHT22;2916;49.798;10.022;2023-02-28T11:02:29;3.00;1.00
5779;DHT22;2916;49.798;10.022;2023-02-28T11:04:58;3.10;1.00
5779;DHT22;2916;49.798;10.022;2023-02-28T11:07:27;3.10;1.00
5779;DHT22;2916;49.798;10.022;2023-02-28T11:09:56;3.10;1.00
5779;DHT22;2916;49.798;10.022;2023-02-28T11:12:26;3.30;1.00
5779;DHT22;2916;49.798;10.022;2023-02-28T11:14:56;3.60;1.00
5779;DHT22;2916;49.798;10.022;2023-02-28T11:17:26;3.50;1.00
5779;DHT22;2916;49.798;10.022;2023-02-28T11:19:55;3.10;1.00
5779;DHT22;2916;49.798;10.022;2023-02-28T11:22:26;3.20;1.00
5779;DHT22;2916;49.798;10.022;2023-02-28T11:24:56;3.50;1.00
5779;DHT22;2916;49.798;10.022;2023-02-28T11:27:26;3.30;1.00
5779;DHT22;2916;49.798;10.022;2023-02-28T11:30:24;3.30;1.00
5779;DHT22;2916;49.798;10.022;2023-02-28T11:32:51;3.50;1.00
5779;DHT22;2916;49.798;10.022;2023-02-28T11:35:23;3.80;1.00
5779;DHT22;2916;49.798;10.022;2023-02-28T11:37:52;3.60;1.00
5779;DHT22;2916;49.798;10.022;2023-02-28T11:40:38;3.70;1.00
5779;DHT22;2916;49.798;10.022;2023-02-28T11:43:19;4.10;1.00
5779;DHT22;2916;49.798;10.022;2023-02-28T11:46:06;3.90;1.00
5779;DHT22;2916;49.798;10.022;2023-02-28T11:48:46;4.00;1.00
5779;DHT22;2916;49.798;10.022;2023-02-28T11:51:20;3.70;1.00
5779;DHT22;2916;49.798;10.022;2023-02-28T11:54:17;3.60;1.00
5779;DHT22;2916;49.798;10.022;2023-02-28T11:56:51;3.60;1.00
5779;DHT22;2916;49.798;10.022;2023-02-28T11:59:38;3.60;1.00
5779;DHT22;2916;49.798;10.022;2023-02-28T12:02:23;3.60;1.00
5779;DHT22;2916;49.798;10.022;2023-02-28T12:05:01;3.50;1.00
5779;DHT22;2916;49.798;10.022;2023-02-28T12:07:40;3.70;1.00
5779;DHT22;2916;49.798;10.022;2023-02-28T12:10:20;3.50;1.00
5779;DHT22;2916;49.798;10.022;2023-02-28T12:12:55;3.50;1.00
5779;DHT22;2916;49.798;10.022;2023-02-28T12:15:41;3.50;1.00
5779;DHT22;2916;49.798;10.022;2023-02-28T12:18:21;3.70;1.00
5779;DHT22;2916;49.798;10.022;2023-02-28T12:20:55;4.10;1.00
5779;DHT22;2916;49.798;10.022;2023-02-28T12:26:37;3.70;1.00
5779;DHT22;2916;49.798;10.022;2023-02-28T12:29:12;3.40;1.00
5779;DHT22;2916;49.798;10.022;2023-02-28T12:31:45;3.60;1.00
5779;DHT22;2916;49.798;10.022;2023-02-28T12:34:18;3.60;1.00
5779;DHT22;2916;49.798;10.022;2023-02-28T12:36:47;3.60;1.00
5779;DHT22;2916;49.798;10.022;2023-02-28T12:39:19;3.70;1.00
5779;DHT22;2916;49.798;10.022;2023-02-28T12:41:53;3.90;1.00
5779;DHT22;2916;49.798;10.022;2023-02-28T12:44:23;3.80;1.00
5779;DHT22;2916;49.798;10.022;2023-02-28T12:46:56;3.90;1.00
5779;DHT22;2916;49.798;10.022;2023-02-28T12:49:29;4.00;1.00
5779;DHT22;2916;49.798;10.022;2023-02-28T12:51:58;4.10;1.00
5779;DHT22;2916;49.798;10.022;2023-02-28T12:54:31;4.20;1.00
5779;DHT22;2916;49.798;10.022;2023-02-28T12:57:06;4.50;1.00
5779;DHT22;2916;49.798;10.022;2023-02-28T12:59:39;4.30;1.00
5779;DHT22;2916;49.798;10.022;2023-02-28T13:02:42;4.10;1.00
5779;DHT22;2916;49.798;10.022;2023-02-28T13:05:32;4.40;1.00
5779;DHT22;2916;49.798;10.022;2023-02-28T13:08:23;4.30;1.00
5779;DHT22;2916;49.798;10.022;2023-02-28T13:10:54;4.10;1.00
5779;DHT22;2916;49.798;10.022;2023-02-28T13:13:24;4.20;1.00
5779;DHT22;2916;49.798;10.022;2023-02-28T13:16:02;4.20;1.00
5779;DHT22;2916;49.798;10.022;2023-02-28T13:18:32;4.10;1.00
5779;DHT22;2916;49.798;10.022;2023-02-28T13:21:01;4.30;1.00
5779;DHT22;2916;49.798;10.022;2023-02-28T13:23:59;4.20;1.00
5779;DHT22;2916;49.798;10.022;2023-02-28T13:29:59;4.40;1.00
5779;DHT22;2916;49.798;10.022;2023-02-28T13:32:36;4.50;1.00
5779;DHT22;2916;49.798;10.022;2023-02-28T13:35:35;4.40;1.00
5779;DHT22;2916;49.798;10.022;2023-02-28T13:38:25;4.50;1.00
5779;DHT22;2916;49.798;10.022;2023-02-28T13:44:00;4.70;1.00
5779;DHT22;2916;49.798;10.022;2023-02-28T13:46:29;4.80;1.00
5779;DHT22;2916;49.798;10.022;2023-02-28T13:48:57;4.80;1.00
5779;DHT22;2916;49.798;10.022;2023-02-28T13:51:45;4.70;1.00
5779;DHT22;2916;49.798;10.022;2023-02-28T13:54:23;4.90;1.00
5779;DHT22;2916;49.798;10.022;2023-02-28T13:57:03;4.70;1.00
5779;DHT22;2916;49.798;10.022;2023-02-28T13:59:36;4.80;1.00
5779;DHT22;2916;49.798;10.022;2023-02-28T14:05:13;4.80;1.00
5779;DHT22;2916;49.798;10.022;2023-02-28T14:07:45;4.90;1.00
5779;DHT22;2916;49.798;10.022;2023-02-28T14:10:23;4.90;1.00
5779;DHT22;2916;49.798;10.022;2023-02-28T14:12:59;4.60;1.00
5779;DHT22;2916;49.798;10.022;2023-02-28T14:15:49;4.70;1.00
5779;DHT22;2916;49.798;10.022;2023-02-28T14:18:26;4.70;1.00
5779;DHT22;2916;49.798;10.022;2023-02-28T14:21:01;4.70;1.00
5779;DHT22;2916;49.798;10.022;2023-02-28T14:23:46;4.70;1.00
5779;DHT22;2916;49.798;10.022;2023-02-28T14:26:32;4.70;1.00
5779;DHT22;2916;49.798;10.022;2023-02-28T14:29:16;4.80;1.00
5779;DHT22;2916;49.798;10.022;2023-02-28T14:31:51;5.00;1.00
5779;DHT22;2916;49.798;10.022;2023-02-28T14:34:31;4.90;1.00
5779;DHT22;2916;49.798;10.022;2023-02-28T14:37:04;4.80;1.00
5779;DHT22;2916;49.798;10.022;2023-02-28T14:39:33;4.90;1.00
5779;DHT22;2916;49.798;10.022;2023-02-28T14:42:02;4.80;1.00
5779;DHT22;2916;49.798;10.022;2023-02-28T14:44:30;4.70;1.00
5779;DHT22;2916;49.798;10.022;2023-02-28T14:47:00;4.70;1.00
5779;DHT22;2916;49.798;10.022;2023-02-28T14:49:34;4.60;1.00
5779;DHT22;2916;49.798;10.022;2023-02-28T14:52:07;4.60;1.00
5779;DHT22;2916;49.798;10.022;2023-02-28T14:54:40;4.70;1.00
5779;DHT22;2916;49.798;10.022;2023-02-28T14:57:21;4.80;1.00
5779;DHT22;2916;49.798;10.022;2023-02-28T14:59:57;4.90;1.00
5779;DHT22;2916;49.798;10.022;2023-02-28T15:02:29;5.00;1.00
5779;DHT22;2916;49.798;10.022;2023-02-28T15:04:58;4.90;1.00
5779;DHT22;2916;49.798;10.022;2023-02-28T15:07:26;4.80;1.00
5779;DHT22;2916;49.798;10.022;2023-02-28T15:10:13;4.70;1.00
5779;DHT22;2916;49.798;10.022;2023-02-28T15:12:50;4.70;1.00
5779;DHT22;2916;49.798;10.022;2023-02-28T15:15:18;4.70;1.00
5779;DHT22;2916;49.798;10.022;2023-02-28T15:17:49;4.60;1.00
5779;DHT22;2916;49.798;10.022;2023-02-28T15:20:18;4.80;1.00
5779;DHT22;2916;49.798;10.022;2023-02-28T15:22:50;4.70;1.00
5779;DHT22;2916;49.798;10.022;2023-02-28T15:25:20;4.80;1.00
5779;DHT22;2916;49.798;10.022;2023-02-28T15:27:49;4.80;1.00
5779;DHT22;2916;49.798;10.022;2023-02-28T15:30:19;4.80;1.00
5779;DHT22;2916;49.798;10.022;2023-02-28T15:33:04;4.70;1.00
5779;DHT22;2916;49.798;10.022;2023-02-28T15:35:32;4.60;1.00
5779;DHT22;2916;49.798;10.022;2023-02-28T15:38:03;4.70;1.00
5779;DHT22;2916;49.798;10.022;2023-02-28T15:40:36;4.60;1.00
5779;DHT22;2916;49.798;10.022;2023-02-28T15:43:05;4.60;1.00
5779;DHT22;2916;49.798;10.022;2023-02-28T15:45:36;4.50;1.00
5779;DHT22;2916;49.798;10.022;2023-02-28T15:48:17;4.50;1.00
5779;DHT22;2916;49.798;10.022;2023-02-28T15:50:48;4.40;1.00
5779;DHT22;2916;49.798;10.022;2023-02-28T15:53:20;4.30;1.00
5779;DHT22;2916;49.798;10.022;2023-02-28T15:55:54;4.20;1.00
5779;DHT22;2916;49.798;10.022;2023-02-28T15:58:22;4.30;1.00
5779;DHT22;2916;49.798;10.022;2023-02-28T16:01:04;4.10;1.00
5779;DHT22;2916;49.798;10.022;2023-02-28T16:03:40;4.10;1.00
5779;DHT22;2916;49.798;10.022;2023-02-28T16:06:32;4.10;1.00
5779;DHT22;2916;49.798;10.022;2023-02-28T16:09:01;4.00;1.00
5779;DHT22;2916;49.798;10.022;2023-02-28T16:11:28;4.00;1.00
5779;DHT22;2916;49.798;10.022;2023-02-28T16:13:57;4.00;1.00
5779;DHT22;2916;49.798;10.022;2023-02-28T16:16:25;3.90;1.00
5779;DHT22;2916;49.798;10.022;2023-02-28T16:18:53;3.80;1.00
5779;DHT22;2916;49.798;10.022;2023-02-28T16:21:20;3.80;1.00
5779;DHT22;2916;49.798;10.022;2023-02-28T16:23:47;3.80;1.00
5779;DHT22;2916;49.798;10.022;2023-02-28T16:26:21;3.70;1.00
5779;DHT22;2916;49.798;10.022;2023-02-28T16:28:49;3.70;1.00
5779;DHT22;2916;49.798;10.022;2023-02-28T16:31:16;3.60;1.00
5779;DHT22;2916;49.798;10.022;2023-02-28T16:33:44;3.60;1.00
5779;DHT22;2916;49.798;10.022;2023-02-28T16:36:14;3.50;1.00
5779;DHT22;2916;49.798;10.022;2023-02-28T16:38:42;3.50;1.00
5779;DHT22;2916;49.798;10.022;2023-02-28T16:41:12;3.50;1.00
5779;DHT22;2916;49.798;10.022;2023-02-28T16:43:46;3.50;1.00
5779;DHT22;2916;49.798;10.022;2023-02-28T16:46:14;3.40;1.00
5779;DHT22;2916;49.798;10.022;2023-02-28T16:48:42;3.30;1.00
5779;DHT22;2916;49.798;10.022;2023-02-28T16:51:12;3.30;1.00